Time;durP1;ratioP1;P1;durP2;ratioP2;P2;SDS_P1;SDS_P2;PMS_P1;PMS_P2;Temp;Humidity;BMP_temperature;BMP_pressure;BME280_temperature;BME280_humidity;BME280_pressure;Samples;Min_cycle;Max_cycle;Signal;HPM_P1;HPM_P2
2023/09/04 00:00:53;;;;;;;;;;;;;;;26.43;58.17;101701.84;5041617;28;19920;-58
2023/09/04 00:03:21;;;;;;;;;;;;;;;26.43;58.16;101700.00;5045544;28;19921;-58
2023/09/04 00:05:48;;;;;;;;;;;;;;;26.42;58.16;101690.16;5052701;28;19928;-58
2023/09/04 00:08:15;;;;;;;;;;;;;;;26.42;58.03;101701.00;5047977;28;19921;-57
2023/09/04 00:10:43;;;;;;;;;;;;;;;26.44;58.11;101704.41;5042196;28;19920;-58
2023/09/04 00:13:11;;;;;;;;;;;;;;;26.43;57.95;101699.13;5045630;28;20338;-58
2023/09/04 00:15:38;;;;;;;;;;;;;;;26.44;58.03;101703.56;5044640;28;19920;-58
2023/09/04 00:18:06;;;;;;;;;;;;;;;26.44;57.94;101707.13;5040684;28;19925;-57
2023/09/04 00:20:33;;;;;;;;;;;;;;;26.43;58.01;101707.28;5044931;28;19928;-59
2023/09/04 00:23:01;;;;;;;;;;;;;;;26.44;58.09;101709.81;5045313;28;20299;-58
2023/09/04 00:25:28;;;;;;;;;;;;;;;26.44;57.94;101712.53;5045103;28;19936;-58
2023/09/04 00:27:56;;;;;;;;;;;;;;;26.44;58.02;101719.84;5041357;28;20252;-57
2023/09/04 00:30:25;;;;;;;;;;;;;;;26.44;57.92;101717.13;5046353;28;20383;-58
2023/09/04 00:32:52;;;;;;;;;;;;;;;26.43;57.86;101710.84;5042033;28;20414;-57
2023/09/04 00:35:21;;;;;;;;;;;;;;;26.44;57.92;101715.25;5043543;28;20299;-58
2023/09/04 00:37:48;;;;;;;;;;;;;;;26.44;57.96;101720.69;5047235;28;19928;-57
2023/09/04 00:40:16;;;;;;;;;;;;;;;26.44;57.90;101726.13;5040516;28;19927;-57
2023/09/04 00:42:43;;;;;;;;;;;;;;;26.45;57.66;101719.69;5043403;28;20410;-57
2023/09/04 00:45:12;;;;;;;;;;;;;;;26.44;57.75;101720.69;5044625;28;19924;-58
2023/09/04 00:47:42;;;;;;;;;;;;;;;26.44;57.92;101714.41;5040603;28;20375;-57
2023/09/04 00:50:11;;;;;;;;;;;;;;;26.44;57.74;101715.25;5044254;28;20276;-50
2023/09/04 00:52:38;;;;;;;;;;;;;;;26.45;57.75;101721.56;5041988;28;19920;-51
2023/09/04 00:55:06;;;;;;;;;;;;;;;26.45;57.84;101721.56;5041792;28;19925;-49
2023/09/04 00:57:33;;;;;;;;;;;;;;;26.45;57.81;101713.44;5047384;28;19921;-50
2023/09/04 01:00:12;;;;;;;;;;;;;;;26.45;57.72;101725.13;5042301;28;19920;-57
2023/09/04 01:02:40;;;;;;;;;;;;;;;26.45;57.81;101719.69;5043887;28;19921;-58
2023/09/04 01:05:08;;;;;;;;;;;;;;;26.44;57.74;101720.69;5045440;28;19920;-58
2023/09/04 01:07:37;;;;;;;;;;;;;;;26.45;57.67;101725.13;5040006;28;20441;-57
2023/09/04 01:10:04;;;;;;;;;;;;;;;26.45;57.66;101719.69;5045013;28;19921;-50
2023/09/04 01:12:55;;;;;;;;;;;;;;;26.45;57.71;101710.72;5042147;28;19920;-50
2023/09/04 01:15:24;;;;;;;;;;;;;;;26.45;57.79;101714.28;5043617;28;19925;-50
2023/09/04 01:17:53;;;;;;;;;;;;;;;26.45;57.71;101714.28;5042441;28;19921;-57
2023/09/04 01:20:26;;;;;;;;;;;;;;;26.45;57.65;101708.84;5043987;28;19928;-58
2023/09/04 01:22:54;;;;;;;;;;;;;;;26.45;57.67;101705.28;5046007;28;19928;-57
2023/09/04 01:25:23;;;;;;;;;;;;;;;26.46;57.65;101705.13;5040658;28;19921;-57
2023/09/04 01:27:57;;;;;;;;;;;;;;;26.45;57.73;101700.69;5048236;28;19925;-57
2023/09/04 01:30:33;;;;;;;;;;;;;;;26.46;57.73;101696.16;5048288;28;20383;-58
2023/09/04 01:33:04;;;;;;;;;;;;;;;26.46;57.82;101694.28;5044001;28;19928;-57
2023/09/04 01:35:32;;;;;;;;;;;;;;;26.45;57.71;101695.28;5046446;28;20398;-57
2023/09/04 01:37:59;;;;;;;;;;;;;;;26.46;57.81;101688.00;5048143;28;19925;-57
2023/09/04 01:40:26;;;;;;;;;;;;;;;26.45;57.69;101697.97;5048451;28;19921;-57
2023/09/04 01:42:54;;;;;;;;;;;;;;;26.45;57.71;101697.13;5043820;28;20379;-57
2023/09/04 01:45:21;;;;;;;;;;;;;;;26.45;57.82;101695.28;5047464;28;19928;-57
2023/09/04 01:47:48;;;;;;;;;;;;;;;26.46;57.80;101693.44;5046869;28;19928;-51
2023/09/04 01:50:15;;;;;;;;;;;;;;;26.46;57.70;101690.72;5044975;28;20307;-51
2023/09/04 01:52:42;;;;;;;;;;;;;;;26.46;57.69;101691.56;5050871;28;19928;-51
2023/09/04 01:55:09;;;;;;;;;;;;;;;26.46;57.74;101693.44;5045540;28;19921;-50
2023/09/04 01:57:36;;;;;;;;;;;;;;;26.46;57.71;101698.88;5048065;28;20405;-53
2023/09/04 02:00:04;;;;;;;;;;;;;;;26.46;57.94;101693.44;5047995;28;20302;-52
2023/09/04 02:02:40;;;;;;;;;;;;;;;26.46;57.80;101702.44;5050368;28;19920;-52
2023/09/04 02:05:08;;;;;;;;;;;;;;;26.46;57.80;101702.44;5046772;28;20330;-52
2023/09/04 02:07:35;;;;;;;;;;;;;;;26.46;57.86;101705.13;5044963;28;19920;-53
2023/09/04 02:10:03;;;;;;;;;;;;;;;26.46;57.83;101701.56;5043331;28;19921;-57
2023/09/04 02:12:30;;;;;;;;;;;;;;;26.46;57.73;101699.72;5054857;28;19921;-57
2023/09/04 02:14:57;;;;;;;;;;;;;;;26.46;57.65;101691.56;5043857;28;19931;-57
2023/09/04 02:17:25;;;;;;;;;;;;;;;26.46;57.70;101688.84;5048000;28;19921;-58
2023/09/04 02:19:53;;;;;;;;;;;;;;;26.46;57.77;101677.16;5049941;28;20367;-58
2023/09/04 02:22:20;;;;;;;;;;;;;;;26.45;57.69;101673.53;5043212;28;20266;-57
2023/09/04 02:24:47;;;;;;;;;;;;;;;26.45;57.82;101670.81;5048031;28;19925;-58
2023/09/04 02:27:14;;;;;;;;;;;;;;;26.45;57.71;101675.41;5046357;28;19927;-57
2023/09/04 02:29:41;;;;;;;;;;;;;;;26.46;57.78;101666.28;5042542;28;19921;-50
2023/09/04 02:32:08;;;;;;;;;;;;;;;26.46;57.66;101660.84;5054570;28;19921;-50
2023/09/04 02:34:36;;;;;;;;;;;;;;;26.46;57.60;101655.41;5044758;28;20378;-50
2023/09/04 02:37:03;;;;;;;;;;;;;;;26.45;57.55;101651.81;5045015;28;19928;-51
2023/09/04 02:39:30;;;;;;;;;;;;;;;26.46;57.54;101650.00;5046773;28;19921;-50
2023/09/04 02:41:57;;;;;;;;;;;;;;;26.45;57.42;101649.09;5042858;28;20370;-50
2023/09/04 02:44:24;;;;;;;;;;;;;;;26.46;57.58;101650.00;5048181;28;19921;-52
2023/09/04 02:46:52;;;;;;;;;;;;;;;26.44;57.62;101644.66;5045795;28;19939;-50
2023/09/04 02:49:19;;;;;;;;;;;;;;;26.44;57.33;101647.38;5043675;28;19921;-50
2023/09/04 02:51:46;;;;;;;;;;;;;;;26.45;57.48;101640.97;5043096;28;19921;-51
2023/09/04 02:54:13;;;;;;;;;;;;;;;26.45;57.51;101642.84;5044740;28;19921;-50
2023/09/04 02:56:40;;;;;;;;;;;;;;;26.44;57.44;101639.22;5045493;28;20310;-50
2023/09/04 02:59:07;;;;;;;;;;;;;;;26.45;57.60;101635.53;5054031;28;19925;-50
2023/09/04 03:01:35;;;;;;;;;;;;;;;26.45;57.48;101640.13;5049270;28;20375;-51
2023/09/04 03:04:02;;;;;;;;;;;;;;;26.45;57.50;101634.69;5042943;28;19928;-51
2023/09/04 03:06:29;;;;;;;;;;;;;;;26.45;57.38;101634.69;5045309;28;19921;-50
2023/09/04 03:08:56;;;;;;;;;;;;;;;26.45;57.42;101632.81;5046864;28;19921;-57
2023/09/04 03:11:23;;;;;;;;;;;;;;;26.45;57.51;101623.81;5042428;28;20386;-58
2023/09/04 03:13:51;;;;;;;;;;;;;;;26.45;57.17;101630.09;5047253;28;19928;-57
2023/09/04 03:16:18;;;;;;;;;;;;;;;26.44;57.35;101617.50;5043543;28;19925;-57
2023/09/04 03:18:46;;;;;;;;;;;;;;;26.46;57.13;101626.41;5041974;28;19921;-57
2023/09/04 03:21:13;;;;;;;;;;;;;;;26.45;57.04;101632.81;5047417;28;19928;-57
2023/09/04 03:23:40;;;;;;;;;;;;;;;26.44;57.04;101622.94;5042585;28;19928;-58
2023/09/04 03:26:07;;;;;;;;;;;;;;;26.45;57.00;101629.25;5044346;28;19928;-57
2023/09/04 03:28:34;;;;;;;;;;;;;;;26.45;57.09;101634.69;5047686;28;19921;-57
2023/09/04 03:31:02;;;;;;;;;;;;;;;26.44;57.03;101625.66;5042236;28;19921;-58
2023/09/04 03:33:31;;;;;;;;;;;;;;;26.44;57.04;101625.66;5047039;28;20279;-57
2023/09/04 03:35:58;;;;;;;;;;;;;;;26.44;56.87;101627.53;5043646;28;19928;-57
2023/09/04 03:38:27;;;;;;;;;;;;;;;26.43;56.97;101621.25;5041597;28;20287;-50
2023/09/04 03:40:54;;;;;;;;;;;;;;;26.44;56.89;101622.94;5047301;28;19921;-52
2023/09/04 03:43:22;;;;;;;;;;;;;;;26.43;56.82;101629.41;5044005;28;19921;-50
2023/09/04 03:45:50;;;;;;;;;;;;;;;26.44;56.91;101627.53;5044349;28;19927;-51
2023/09/04 03:48:17;;;;;;;;;;;;;;;26.44;56.76;101627.53;5047421;28;19921;-49
2023/09/04 03:50:45;;;;;;;;;;;;;;;26.43;56.77;101632.09;5041452;28;19927;-51
2023/09/04 03:53:12;;;;;;;;;;;;;;;26.44;56.87;101635.66;5045401;28;20394;-50
2023/09/04 03:55:39;;;;;;;;;;;;;;;26.44;56.70;101636.53;5043173;28;20409;-51
2023/09/04 03:58:06;;;;;;;;;;;;;;;26.43;56.70;101637.53;5042410;28;19921;-57
2023/09/04 04:00:33;;;;;;;;;;;;;;;26.43;56.81;101628.53;5047507;28;19921;-58
2023/09/04 04:03:00;;;;;;;;;;;;;;;26.43;56.74;101626.69;5041549;28;19944;-57
2023/09/04 04:05:28;;;;;;;;;;;;;;;26.43;56.78;101628.53;5025126;28;19925;-58
2023/09/04 04:07:56;;;;;;;;;;;;;;;26.43;56.87;101629.41;5046686;28;19925;-57
2023/09/04 04:10:23;;;;;;;;;;;;;;;26.43;56.80;101634.81;5041482;28;19921;-58
2023/09/04 04:12:51;;;;;;;;;;;;;;;26.43;57.04;101637.53;5046128;28;19921;-57
2023/09/04 04:15:19;;;;;;;;;;;;;;;26.44;56.95;101647.38;5044613;28;19924;-57
2023/09/04 04:17:47;;;;;;;;;;;;;;;26.43;57.02;101642.97;5041281;28;19921;-57
2023/09/04 04:20:15;;;;;;;;;;;;;;;26.45;57.00;101645.53;5047815;28;20283;-57
2023/09/04 04:22:42;;;;;;;;;;;;;;;26.45;56.78;101637.41;5042680;28;19921;-57
2023/09/04 04:25:10;;;;;;;;;;;;;;;26.45;56.80;101638.25;5043886;28;19925;-57
2023/09/04 04:27:38;;;;;;;;;;;;;;;26.44;56.86;101641.94;5052289;28;19920;-52
2023/09/04 04:30:06;;;;;;;;;;;;;;;26.45;56.87;101650.97;5045936;28;19921;-57
2023/09/04 04:32:33;;;;;;;;;;;;;;;26.44;56.87;101655.53;5041394;28;20345;-57
2023/09/04 04:35:01;;;;;;;;;;;;;;;26.44;56.96;101647.38;5043892;28;19947;-57
2023/09/04 04:37:28;;;;;;;;;;;;;;;26.45;56.77;101656.41;5037631;28;19928;-57
2023/09/04 04:39:56;;;;;;;;;;;;;;;26.44;56.78;101660.09;5041121;28;19921;-49
2023/09/04 04:42:25;;;;;;;;;;;;;;;26.43;56.83;101653.81;5042420;28;19921;-50
2023/09/04 04:44:54;;;;;;;;;;;;;;;26.45;56.88;101654.53;5043330;28;19921;-50
2023/09/04 04:47:23;;;;;;;;;;;;;;;26.44;56.92;101673.69;5039666;28;19935;-49
2023/09/04 04:49:51;;;;;;;;;;;;;;;26.43;57.01;101686.41;5057248;28;20291;-57
2023/09/04 04:52:18;;;;;;;;;;;;;;;26.43;56.83;101683.69;5042645;28;19921;-57
2023/09/04 04:54:45;;;;;;;;;;;;;;;26.45;56.91;101683.56;5043412;28;19920;-58
2023/09/04 04:57:12;;;;;;;;;;;;;;;26.43;57.03;101688.28;5039440;28;19921;-57
2023/09/04 04:59:39;;;;;;;;;;;;;;;26.43;56.93;101691.00;5046725;28;19921;-57
2023/09/04 05:02:07;;;;;;;;;;;;;;;26.42;56.98;101690.16;5040092;28;19921;-57
2023/09/04 05:04:35;;;;;;;;;;;;;;;26.43;56.96;101686.41;5043029;28;19921;-57
2023/09/04 05:07:04;;;;;;;;;;;;;;;26.43;56.98;101694.56;5046964;28;20306;-57
2023/09/04 05:09:32;;;;;;;;;;;;;;;26.42;56.83;101700.16;5040459;28;19921;-57
2023/09/04 05:12:01;;;;;;;;;;;;;;;26.42;56.87;101709.16;5041052;28;19931;-57
2023/09/04 05:14:28;;;;;;;;;;;;;;;26.43;56.74;101705.41;5041469;28;19928;-57
2023/09/04 05:16:56;;;;;;;;;;;;;;;26.43;56.84;101704.56;5039267;28;19921;-57
2023/09/04 05:19:23;;;;;;;;;;;;;;;26.42;56.73;101701.00;5050138;28;19921;-57
2023/09/04 05:21:50;;;;;;;;;;;;;;;26.41;56.79;101702.00;5045382;28;19925;-57
2023/09/04 05:24:23;;;;;;;;;;;;;;;26.42;56.80;101711.03;5038045;28;19921;-57
2023/09/04 05:26:50;;;;;;;;;;;;;;;26.41;56.72;101710.13;5040073;28;19924;-58
2023/09/04 05:29:18;;;;;;;;;;;;;;;26.42;56.67;101711.03;5041127;28;19928;-57
2023/09/04 05:31:45;;;;;;;;;;;;;;;26.41;56.75;101712.00;5044762;28;19943;-57
2023/09/04 05:34:12;;;;;;;;;;;;;;;26.40;56.84;101708.44;5043825;28;19921;-58
2023/09/04 05:36:40;;;;;;;;;;;;;;;26.41;56.63;101703.84;5039519;28;19921;-57
2023/09/04 05:39:07;;;;;;;;;;;;;;;26.41;56.81;101701.13;5046594;28;20275;-50
2023/09/04 05:41:39;;;;;;;;;;;;;;;26.39;56.66;101707.59;5041969;28;19935;-49
2023/09/04 05:44:08;;;;;;;;;;;;;;;26.40;56.73;101708.44;5043036;28;19921;-50
2023/09/04 05:46:35;;;;;;;;;;;;;;;26.41;56.81;101712.84;5047011;28;19920;-57
2023/09/04 05:49:02;;;;;;;;;;;;;;;26.41;56.71;101723.72;5040992;28;19928;-49
2023/09/04 05:51:30;;;;;;;;;;;;;;;26.40;56.67;101722.00;5043403;28;19921;-49
2023/09/04 05:53:57;;;;;;;;;;;;;;;26.41;56.81;101720.16;5043777;28;19928;-50
2023/09/04 05:56:24;;;;;;;;;;;;;;;26.41;56.65;101720.16;5039969;28;20302;-50
2023/09/04 05:58:51;;;;;;;;;;;;;;;26.41;56.82;101715.56;5045097;28;19932;-57
2023/09/04 06:01:19;;;;;;;;;;;;;;;26.41;56.78;101715.56;5042234;28;19928;-58
2023/09/04 06:03:46;;;;;;;;;;;;;;;26.41;56.78;101710.13;5044820;28;19928;-57
2023/09/04 06:06:14;;;;;;;;;;;;;;;26.41;56.46;101706.56;5043571;28;19921;-57
2023/09/04 06:08:42;;;;;;;;;;;;;;;26.41;56.72;101714.72;5041166;28;19925;-50
2023/09/04 06:11:09;;;;;;;;;;;;;;;26.42;56.42;101716.44;5041780;28;19921;-50
2023/09/04 06:13:36;;;;;;;;;;;;;;;26.41;56.61;101723.72;5047434;28;19928;-49
2023/09/04 06:16:03;;;;;;;;;;;;;;;26.42;56.69;101727.31;5047198;28;20390;-50
2023/09/04 06:18:30;;;;;;;;;;;;;;;26.41;56.89;101726.44;5044555;28;20294;-49
2023/09/04 06:20:58;;;;;;;;;;;;;;;26.42;56.77;101721.88;5047061;28;19920;-49
2023/09/04 06:23:25;;;;;;;;;;;;;;;26.42;56.68;101725.44;5047024;28;19927;-50
2023/09/04 06:25:52;;;;;;;;;;;;;;;26.42;56.63;101719.16;5042979;28;19921;-50
2023/09/04 06:28:19;;;;;;;;;;;;;;;26.41;56.70;101718.28;5048840;28;19921;-58
2023/09/04 06:30:47;;;;;;;;;;;;;;;26.42;56.52;101727.31;5045517;28;20256;-58
2023/09/04 06:33:14;;;;;;;;;;;;;;;26.42;56.34;101722.72;5046275;28;19921;-58
2023/09/04 06:35:41;;;;;;;;;;;;;;;26.42;56.28;101728.16;5044935;28;19924;-58
2023/09/04 06:38:12;;;;;;;;;;;;;;;26.42;56.39;101725.44;5043783;28;19921;-53
2023/09/04 06:40:39;;;;;;;;;;;;;;;26.43;56.42;101720.84;5046747;28;19928;-52
2023/09/04 06:43:07;;;;;;;;;;;;;;;26.43;56.54;101729.00;5047033;28;19920;-61
2023/09/04 06:45:37;;;;;;;;;;;;;;;26.42;56.56;101717.28;5042832;28;19943;-62
2023/09/04 06:48:05;;;;;;;;;;;;;;;26.39;56.35;101717.59;5048134;28;20295;-61
2023/09/04 06:50:32;;;;;;;;;;;;;;;26.37;55.98;101708.75;5046933;28;19921;-62
2023/09/04 06:52:59;;;;;;;;;;;;;;;26.37;55.78;101715.06;5046003;28;19928;-62
2023/09/04 06:55:26;;;;;;;;;;;;;;;26.39;55.77;101720.31;5042347;28;19921;-61
2023/09/04 06:57:53;;;;;;;;;;;;;;;26.39;55.89;101718.44;5047583;28;19928;-60
2023/09/04 07:00:21;;;;;;;;;;;;;;;26.41;55.87;101726.44;5036223;28;19928;-59
2023/09/04 07:02:48;;;;;;;;;;;;;;;26.42;55.56;101720.00;5036195;28;19921;-60
2023/09/04 07:05:17;;;;;;;;;;;;;;;26.43;55.42;101724.44;5035727;28;19987;-60
2023/09/04 07:07:47;;;;;;;;;;;;;;;26.40;55.33;101727.44;5035711;28;19921;-60
2023/09/04 07:10:14;;;;;;;;;;;;;;;26.39;55.26;101729.31;5035894;28;19921;-59
2023/09/04 07:12:41;;;;;;;;;;;;;;;26.40;55.50;101730.16;5035913;28;19928;-59
2023/09/04 07:15:09;;;;;;;;;;;;;;;26.41;55.51;101737.28;5035757;28;19921;-59
2023/09/04 07:17:36;;;;;;;;;;;;;;;26.43;55.80;101734.44;5035618;28;20310;-59
2023/09/04 07:20:04;;;;;;;;;;;;;;;26.43;55.87;101734.44;5035875;28;19928;-60
2023/09/04 07:22:31;;;;;;;;;;;;;;;26.40;56.03;101743.72;5035591;28;20288;-60
2023/09/04 07:24:58;;;;;;;;;;;;;;;26.41;56.19;101747.28;5042336;28;19927;-60
2023/09/04 07:27:26;;;;;;;;;;;;;;;26.39;56.15;101742.03;5038333;28;19925;-59
2023/09/04 07:29:54;;;;;;;;;;;;;;;26.37;56.41;101747.63;5044751;28;20374;-58
2023/09/04 07:32:21;;;;;;;;;;;;;;;26.39;56.74;101744.75;5046839;28;19921;-58
2023/09/04 07:34:49;;;;;;;;;;;;;;;26.40;56.51;101746.44;5044839;28;19921;-58
2023/09/04 07:37:16;;;;;;;;;;;;;;;26.40;56.90;101749.16;5042423;28;19921;-58
2023/09/04 07:39:43;;;;;;;;;;;;;;;26.41;57.03;101748.16;5044172;28;19922;-58
2023/09/04 07:42:12;;;;;;;;;;;;;;;26.39;57.34;101756.47;5046419;28;19920;-58
2023/09/04 07:44:39;;;;;;;;;;;;;;;26.35;57.64;101757.78;5037362;28;19921;-58
2023/09/04 07:47:06;;;;;;;;;;;;;;;26.33;57.82;101762.53;5046391;28;19921;-58
2023/09/04 07:49:33;;;;;;;;;;;;;;;26.33;57.97;101758.94;5043731;28;20283;-58
2023/09/04 07:52:01;;;;;;;;;;;;;;;26.32;58.01;101760.81;5051572;28;19921;-58
2023/09/04 07:54:28;;;;;;;;;;;;;;;26.32;57.91;101749.94;5041075;28;19928;-58
2023/09/04 07:56:56;;;;;;;;;;;;;;;26.34;57.95;101750.66;5045797;28;19936;-58
2023/09/04 07:59:23;;;;;;;;;;;;;;;26.36;57.91;101747.78;5043892;28;19921;-58
2023/09/04 08:01:50;;;;;;;;;;;;;;;26.37;57.87;101760.31;5043231;28;19928;-58
2023/09/04 08:04:17;;;;;;;;;;;;;;;26.42;57.73;101749.88;5047993;28;19921;-58
2023/09/04 08:06:45;;;;;;;;;;;;;;;26.46;57.59;101748.59;5042132;28;19921;-58
2023/09/04 08:09:13;;;;;;;;;;;;;;;26.49;57.69;101748.25;5044788;28;19921;-58
2023/09/04 08:11:40;;;;;;;;;;;;;;;26.52;57.65;101750.66;5045260;28;19921;-57
2023/09/04 08:14:08;;;;;;;;;;;;;;;26.54;57.44;101740.50;5040731;28;19921;-58
2023/09/04 08:16:35;;;;;;;;;;;;;;;26.56;57.77;101745.75;5036341;28;19928;-58
2023/09/04 08:19:02;;;;;;;;;;;;;;;26.56;57.73;101745.75;5044358;28;19925;-58
2023/09/04 08:21:33;;;;;;;;;;;;;;;26.56;57.85;101741.19;5045657;28;19924;-58
2023/09/04 08:24:00;;;;;;;;;;;;;;;26.58;57.83;101752.75;5040276;28;19921;-58
2023/09/04 08:26:29;;;;;;;;;;;;;;;26.59;57.69;101751.75;5045128;28;19921;-58
2023/09/04 08:28:56;;;;;;;;;;;;;;;26.62;57.91;101751.44;5042985;28;19940;-58
2023/09/04 08:31:24;;;;;;;;;;;;;;;26.66;57.94;101757.41;5042469;28;19921;-58
2023/09/04 08:33:51;;;;;;;;;;;;;;;26.69;58.21;101761.66;5046109;28;19928;-58
2023/09/04 08:36:18;;;;;;;;;;;;;;;26.72;58.18;101758.63;5041945;28;20382;-58
2023/09/04 08:38:45;;;;;;;;;;;;;;;26.75;57.48;101764.59;5043859;28;19921;-58
2023/09/04 08:41:15;;;;;;;;;;;;;;;26.77;57.39;101764.44;5044962;28;19924;-58
2023/09/04 08:43:45;;;;;;;;;;;;;;;26.80;57.16;101764.13;5039955;28;19924;-58
2023/09/04 08:46:15;;;;;;;;;;;;;;;26.81;57.17;101765.81;5044786;28;19925;-58
2023/09/04 08:48:44;;;;;;;;;;;;;;;26.84;56.96;101765.50;5042918;28;19925;-59
2023/09/04 08:51:11;;;;;;;;;;;;;;;26.87;56.42;101762.47;5040936;28;19931;-59
2023/09/04 08:53:39;;;;;;;;;;;;;;;26.88;55.70;101762.31;5046931;28;20375;-59
2023/09/04 08:56:06;;;;;;;;;;;;;;;26.90;55.23;101764.88;5041905;28;19921;-59
2023/09/04 08:58:33;;;;;;;;;;;;;;;26.92;54.72;101768.28;5043946;28;19932;-59
2023/09/04 09:01:01;;;;;;;;;;;;;;;26.96;54.41;101752.50;5045690;28;19921;-59
2023/09/04 09:03:28;;;;;;;;;;;;;;;27.01;53.52;101745.56;5038793;28;19921;-59
2023/09/04 09:05:56;;;;;;;;;;;;;;;27.05;53.06;101746.09;5044051;28;19924;-59
2023/09/04 09:08:24;;;;;;;;;;;;;;;27.07;52.42;101734.06;5042755;28;19924;-59
2023/09/04 09:10:52;;;;;;;;;;;;;;;27.09;52.10;101733.91;5040848;28;19921;-59
2023/09/04 09:13:19;;;;;;;;;;;;;;;27.11;51.57;101740.06;5046914;28;20387;-59
2023/09/04 09:15:47;;;;;;;;;;;;;;;27.11;51.70;101740.91;5041596;28;19921;-59
2023/09/04 09:18:33;;;;;;;;;;;;;;;27.11;51.81;101730.03;5043713;28;19925;-59
2023/09/04 09:21:00;;;;;;;;;;;;;;;27.10;52.69;101733.78;5047063;28;19928;-59
2023/09/04 09:23:29;;;;;;;;;;;;;;;27.09;53.08;101731.19;5041705;28;19943;-58
2023/09/04 09:25:56;;;;;;;;;;;;;;;27.06;52.90;101724.22;5043572;28;19924;-59
2023/09/04 09:28:23;;;;;;;;;;;;;;;27.02;53.20;101714.69;5044170;28;19925;-59
2023/09/04 09:30:51;;;;;;;;;;;;;;;26.99;53.33;101706.84;5039839;28;19921;-59
2023/09/04 09:33:20;;;;;;;;;;;;;;;26.96;52.88;101709.88;5044776;28;19921;-58
2023/09/04 09:35:47;;;;;;;;;;;;;;;26.96;51.99;101706.31;5042395;28;19921;-59
2023/09/04 09:38:14;;;;;;;;;;;;;;;26.98;48.33;101707.88;5041282;28;19928;-57
2023/09/04 09:40:43;;;;;;;;;;;;;;;27.02;46.65;101708.38;5046322;28;19927;-57
2023/09/04 09:43:11;;;;;;;;;;;;;;;27.08;45.59;101713.16;5041450;28;19924;-57
2023/09/04 09:45:38;;;;;;;;;;;;;;;27.09;45.77;101714.88;5043650;28;19920;-57
2023/09/04 09:48:06;;;;;;;;;;;;;;;27.12;45.03;101720.03;5046671;28;19921;-57
2023/09/04 09:50:40;;;;;;;;;;;;;;;27.16;44.15;101720.56;5046352;28;19955;-58
2023/09/04 09:53:07;;;;;;;;;;;;;;;27.19;44.15;101721.09;5045437;28;19920;-58
2023/09/04 09:55:35;;;;;;;;;;;;;;;27.20;44.62;101719.22;5047346;28;19921;-58
2023/09/04 09:58:04;;;;;;;;;;;;;;;27.24;44.24;101721.44;5048957;28;19928;-58
2023/09/04 10:00:34;;;;;;;;;;;;;;;27.27;44.08;101714.84;5050090;28;19925;-58
2023/09/04 10:03:01;;;;;;;;;;;;;;;27.27;45.12;101712.97;5051167;28;19928;-58
2023/09/04 10:05:30;;;;;;;;;;;;;;;27.27;44.97;101709.41;5047413;28;19928;-57
2023/09/04 10:08:01;;;;;;;;;;;;;;;27.28;44.90;101716.53;5049773;28;19920;-57
2023/09/04 10:10:30;;;;;;;;;;;;;;;27.29;44.98;101710.06;5044511;28;19921;-58
2023/09/04 10:13:04;;;;;;;;;;;;;;;27.31;44.40;101708.91;5044704;28;19936;-58
2023/09/04 10:15:34;;;;;;;;;;;;;;;27.32;43.85;101702.44;5048045;28;19921;-58
2023/09/04 10:18:05;;;;;;;;;;;;;;;27.30;44.15;101696.31;5042839;28;19921;-57
2023/09/04 10:20:36;;;;;;;;;;;;;;;27.26;45.30;101696.78;5046723;28;19920;-57
2023/09/04 10:23:07;;;;;;;;;;;;;;;27.22;45.44;101700.84;5046694;28;19935;-57
2023/09/04 10:25:35;;;;;;;;;;;;;;;27.18;45.68;101702.19;5048637;28;19920;-57
2023/09/04 10:28:11;;;;;;;;;;;;;;;27.18;45.54;101702.19;5044772;28;19928;-57
2023/09/04 10:30:39;;;;;;;;;;;;;;;27.17;45.47;101700.50;5044237;28;19928;-56
2023/09/04 10:33:06;;;;;;;;;;;;;;;27.16;45.63;101696.94;5047902;28;19921;-57
2023/09/04 10:35:34;;;;;;;;;;;;;;;27.16;46.09;101705.09;5038436;28;20398;-57
2023/09/04 10:38:02;;;;;;;;;;;;;;;27.17;46.21;101705.94;5048753;28;19928;-57
2023/09/04 10:40:29;;;;;;;;;;;;;;;27.16;46.53;101705.09;5049510;28;19932;-57
2023/09/04 10:43:03;;;;;;;;;;;;;;;27.19;46.37;101698.50;5047584;28;20371;-57
2023/09/04 10:45:31;;;;;;;;;;;;;;;27.25;45.53;101697.81;5046438;28;20268;-57
2023/09/04 10:48:01;;;;;;;;;;;;;;;27.30;45.54;101687.28;5043758;28;19928;-58
2023/09/04 10:50:34;;;;;;;;;;;;;;;27.29;45.89;101688.31;5045019;28;20287;-58
2023/09/04 10:53:02;;;;;;;;;;;;;;;27.28;46.48;101706.50;5047068;28;20393;-58
2023/09/04 10:55:29;;;;;;;;;;;;;;;27.28;46.37;101692.91;5044749;28;19927;-58
2023/09/04 10:57:56;;;;;;;;;;;;;;;27.30;45.23;101692.72;5043662;28;19947;-58
2023/09/04 11:00:30;;;;;;;;;;;;;;;27.33;45.08;101692.41;5043811;28;19921;-58
2023/09/04 11:03:12;;;;;;;;;;;;;;;27.33;45.57;101695.13;5042655;28;20310;-58
2023/09/04 11:05:58;;;;;;;;;;;;;;;27.30;45.83;101693.59;5043477;28;19928;-58
2023/09/04 11:08:26;;;;;;;;;;;;;;;27.29;46.10;101694.59;5045945;28;19932;-58
2023/09/04 11:11:01;;;;;;;;;;;;;;;27.29;46.15;101683.72;5048397;28;20375;-58
2023/09/04 11:13:28;;;;;;;;;;;;;;;27.30;46.36;101690.00;5043243;28;20252;-58
2023/09/04 11:15:56;;;;;;;;;;;;;;;27.29;46.15;101677.44;5043947;28;19925;-58
2023/09/04 11:18:30;;;;;;;;;;;;;;;27.29;45.81;101682.88;5045116;28;19928;-58
2023/09/04 11:20:57;;;;;;;;;;;;;;;27.28;45.94;101681.19;5054601;28;19931;-58
2023/09/04 11:23:25;;;;;;;;;;;;;;;27.32;45.35;101671.69;5046729;28;19932;-58
2023/09/04 11:25:52;;;;;;;;;;;;;;;27.31;45.00;101665.41;5045609;28;19921;-58
2023/09/04 11:28:23;;;;;;;;;;;;;;;27.32;45.06;101666.25;5046045;28;19925;-58
2023/09/04 11:30:54;;;;;;;;;;;;;;;27.33;44.93;101663.34;5041356;28;19921;-58
2023/09/04 11:33:22;;;;;;;;;;;;;;;27.31;45.43;101651.81;5046464;28;19921;-58
2023/09/04 11:36:03;;;;;;;;;;;;;;;27.28;45.72;101648.56;5044092;28;19944;-58
2023/09/04 11:38:32;;;;;;;;;;;;;;;27.24;45.95;101661.63;5040987;28;19921;-51
2023/09/04 11:40:59;;;;;;;;;;;;;;;27.22;45.71;101658.22;5047160;28;19924;-49
2023/09/04 11:43:27;;;;;;;;;;;;;;;27.19;45.87;101650.41;5043537;28;19928;-50
2023/09/04 11:45:59;;;;;;;;;;;;;;;27.17;45.86;101644.25;5044659;28;19925;-48
2023/09/04 11:48:27;;;;;;;;;;;;;;;27.17;46.28;101654.28;5048420;28;20391;-58
2023/09/04 11:50:55;;;;;;;;;;;;;;;27.15;46.59;101645.47;5042440;28;19925;-58
2023/09/04 11:53:22;;;;;;;;;;;;;;;27.13;46.37;101642.88;5043473;28;19921;-58
2023/09/04 11:55:51;;;;;;;;;;;;;;;27.13;46.36;101633.88;5046092;28;19925;-58
2023/09/04 11:58:18;;;;;;;;;;;;;;;27.12;46.63;101633.03;5044629;28;20291;-50
2023/09/04 12:00:46;;;;;;;;;;;;;;;27.10;46.62;101625.06;5042304;28;19925;-51
2023/09/04 12:03:13;;;;;;;;;;;;;;;27.08;46.37;101631.63;5034312;28;19979;-50
2023/09/04 12:05:41;;;;;;;;;;;;;;;27.05;46.17;101619.22;5034388;28;19928;-50
2023/09/04 12:08:09;;;;;;;;;;;;;;;27.05;46.35;101630.09;5034324;28;20299;-51
2023/09/04 12:10:37;;;;;;;;;;;;;;;27.03;46.45;101625.84;5034072;28;19921;-50
2023/09/04 12:13:04;;;;;;;;;;;;;;;27.02;46.48;101629.56;5034370;28;19921;-49
2023/09/04 12:15:34;;;;;;;;;;;;;;;27.02;46.49;101632.28;5034176;28;19921;-52
2023/09/04 12:18:02;;;;;;;;;;;;;;;27.02;46.86;101635.00;5034335;28;19921;-58
2023/09/04 12:20:39;;;;;;;;;;;;;;;27.00;46.86;101629.72;5033854;28;20299;-58
2023/09/04 12:23:07;;;;;;;;;;;;;;;26.99;46.92;101628.03;5026489;28;19928;-58
2023/09/04 12:25:36;;;;;;;;;;;;;;;26.99;46.96;101630.75;5041280;28;19921;-58
2023/09/04 12:28:09;;;;;;;;;;;;;;;26.99;47.14;101616.31;5040552;28;19927;-51
2023/09/04 12:30:38;;;;;;;;;;;;;;;26.97;47.07;101619.19;5045121;28;19936;-49
2023/09/04 12:33:08;;;;;;;;;;;;;;;26.98;47.06;101623.63;5043665;28;19924;-51
2023/09/04 12:35:35;;;;;;;;;;;;;;;26.97;47.35;101611.03;5040433;28;19925;-49
2023/09/04 12:38:06;;;;;;;;;;;;;;;26.97;47.41;101613.75;5045787;28;19920;-58
2023/09/04 12:40:34;;;;;;;;;;;;;;;26.97;47.54;101607.47;5042916;28;19921;-58